sensor_id;sensor_type;location;lat;lon;timestamp;temperature;humidity
74537;SHT31;63013;51.104;-115.370;2023-03-23T00:01:30;25.12;28.02
74537;SHT31;63013;51.104;-115.370;2023-03-23T00:04:02;25.13;28.05
74537;SHT31;63013;51.104;-115.370;2023-03-23T00:06:30;25.14;28.10
74537;SHT31;63013;51.104;-115.370;2023-03-23T00:08:58;25.15;28.11
74537;SHT31;63013;51.104;-115.370;2023-03-23T00:11:29;25.16;28.20
74537;SHT31;63013;51.104;-115.370;2023-03-23T00:13:58;25.16;28.20
74537;SHT31;63013;51.104;-115.370;2023-03-23T00:16:28;25.18;28.15
74537;SHT31;63013;51.104;-115.370;2023-03-23T00:19:04;25.18;28.13
74537;SHT31;63013;51.104;-115.370;2023-03-23T00:21:38;25.18;28.10
74537;SHT31;63013;51.104;-115.370;2023-03-23T00:24:09;25.19;28.10
74537;SHT31;63013;51.104;-115.370;2023-03-23T00:26:42;25.20;28.11
74537;SHT31;63013;51.104;-115.370;2023-03-23T00:29:15;25.20;28.05
74537;SHT31;63013;51.104;-115.370;2023-03-23T00:31:46;25.20;28.03
74537;SHT31;63013;51.104;-115.370;2023-03-23T00:34:15;25.20;28.01
74537;SHT31;63013;51.104;-115.370;2023-03-23T00:36:48;25.20;27.95
74537;SHT31;63013;51.104;-115.370;2023-03-23T00:39:24;25.20;27.94
74537;SHT31;63013;51.104;-115.370;2023-03-23T00:41:54;25.20;27.89
74537;SHT31;63013;51.104;-115.370;2023-03-23T00:44:29;25.19;27.86
74537;SHT31;63013;51.104;-115.370;2023-03-23T00:47:00;25.18;27.86
74537;SHT31;63013;51.104;-115.370;2023-03-23T00:49:29;25.17;27.84
74537;SHT31;63013;51.104;-115.370;2023-03-23T00:52:01;25.16;27.83
74537;SHT31;63013;51.104;-115.370;2023-03-23T00:54:31;25.15;27.81
74537;SHT31;63013;51.104;-115.370;2023-03-23T00:57:00;25.13;27.80
74537;SHT31;63013;51.104;-115.370;2023-03-23T00:59:27;25.12;27.76
74537;SHT31;63013;51.104;-115.370;2023-03-23T01:01:54;25.11;27.70
74537;SHT31;63013;51.104;-115.370;2023-03-23T01:04:22;25.09;27.70
74537;SHT31;63013;51.104;-115.370;2023-03-23T01:06:56;25.08;27.65
74537;SHT31;63013;51.104;-115.370;2023-03-23T01:09:26;25.06;27.64
74537;SHT31;63013;51.104;-115.370;2023-03-23T01:11:54;25.05;27.60
74537;SHT31;63013;51.104;-115.370;2023-03-23T01:14:21;25.03;27.59
74537;SHT31;63013;51.104;-115.370;2023-03-23T01:16:51;25.01;27.58
74537;SHT31;63013;51.104;-115.370;2023-03-23T01:19:18;24.99;27.60
74537;SHT31;63013;51.104;-115.370;2023-03-23T01:21:45;24.98;27.60
74537;SHT31;63013;51.104;-115.370;2023-03-23T01:24:13;24.95;27.58
74537;SHT31;63013;51.104;-115.370;2023-03-23T01:26:41;24.93;27.59
74537;SHT31;63013;51.104;-115.370;2023-03-23T01:29:08;24.90;27.58
74537;SHT31;63013;51.104;-115.370;2023-03-23T01:31:36;24.89;27.59
74537;SHT31;63013;51.104;-115.370;2023-03-23T01:34:03;24.86;27.59
74537;SHT31;63013;51.104;-115.370;2023-03-23T01:36:31;24.84;27.56
74537;SHT31;63013;51.104;-115.370;2023-03-23T01:39:02;24.82;27.55
74537;SHT31;63013;51.104;-115.370;2023-03-23T01:41:31;24.80;27.51
74537;SHT31;63013;51.104;-115.370;2023-03-23T01:46:44;24.75;27.52
74537;SHT31;63013;51.104;-115.370;2023-03-23T01:49:12;24.72;27.50
74537;SHT31;63013;51.104;-115.370;2023-03-23T01:51:46;24.71;27.50
74537;SHT31;63013;51.104;-115.370;2023-03-23T01:54:21;24.68;27.48
74537;SHT31;63013;51.104;-115.370;2023-03-23T01:57:02;24.65;27.50
74537;SHT31;63013;51.104;-115.370;2023-03-23T01:59:35;24.62;27.49
74537;SHT31;63013;51.104;-115.370;2023-03-23T02:02:03;24.60;27.48
74537;SHT31;63013;51.104;-115.370;2023-03-23T02:04:30;24.58;27.47
74537;SHT31;63013;51.104;-115.370;2023-03-23T02:06:59;24.56;27.45
74537;SHT31;63013;51.104;-115.370;2023-03-23T02:09:30;24.54;27.32
74537;SHT31;63013;51.104;-115.370;2023-03-23T02:11:57;24.51;27.31
74537;SHT31;63013;51.104;-115.370;2023-03-23T02:14:24;24.51;27.28
74537;SHT31;63013;51.104;-115.370;2023-03-23T02:17:02;24.48;27.21
74537;SHT31;63013;51.104;-115.370;2023-03-23T02:29:02;24.36;27.24
74537;SHT31;63013;51.104;-115.370;2023-03-23T02:34:49;24.31;27.24
74537;SHT31;63013;51.104;-115.370;2023-03-23T02:37:37;24.29;27.29
74537;SHT31;63013;51.104;-115.370;2023-03-23T02:40:25;24.26;27.30
74537;SHT31;63013;51.104;-115.370;2023-03-23T02:43:02;24.23;27.30
74537;SHT31;63013;51.104;-115.370;2023-03-23T02:45:39;24.21;27.33
74537;SHT31;63013;51.104;-115.370;2023-03-23T02:48:10;24.18;27.36
74537;SHT31;63013;51.104;-115.370;2023-03-23T02:50:42;24.17;27.32
74537;SHT31;63013;51.104;-115.370;2023-03-23T02:53:16;24.14;27.41
74537;SHT31;63013;51.104;-115.370;2023-03-23T02:55:54;24.11;27.39
74537;SHT31;63013;51.104;-115.370;2023-03-23T02:58:24;24.09;27.40
74537;SHT31;63013;51.104;-115.370;2023-03-23T03:00:51;24.07;27.40
74537;SHT31;63013;51.104;-115.370;2023-03-23T03:03:22;24.06;27.43
74537;SHT31;63013;51.104;-115.370;2023-03-23T03:12:15;23.97;27.51
74537;SHT31;63013;51.104;-115.370;2023-03-23T03:20:52;23.91;27.60
74537;SHT31;63013;51.104;-115.370;2023-03-23T03:23:26;23.88;27.59
74537;SHT31;63013;51.104;-115.370;2023-03-23T03:25:57;23.86;27.60
74537;SHT31;63013;51.104;-115.370;2023-03-23T03:28:30;23.82;27.62
74537;SHT31;63013;51.104;-115.370;2023-03-23T03:31:00;23.80;27.61
74537;SHT31;63013;51.104;-115.370;2023-03-23T03:33:32;23.79;27.65
74537;SHT31;63013;51.104;-115.370;2023-03-23T03:36:01;23.76;27.68
74537;SHT31;63013;51.104;-115.370;2023-03-23T03:38:43;23.75;27.70
74537;SHT31;63013;51.104;-115.370;2023-03-23T03:41:14;23.72;27.70
74537;SHT31;63013;51.104;-115.370;2023-03-23T03:43:42;23.71;27.70
74537;SHT31;63013;51.104;-115.370;2023-03-23T03:46:09;23.69;27.70
74537;SHT31;63013;51.104;-115.370;2023-03-23T03:48:37;23.66;27.73
74537;SHT31;63013;51.104;-115.370;2023-03-23T03:51:04;23.63;27.77
74537;SHT31;63013;51.104;-115.370;2023-03-23T03:53:31;23.62;27.77
74537;SHT31;63013;51.104;-115.370;2023-03-23T03:55:59;23.60;27.78
74537;SHT31;63013;51.104;-115.370;2023-03-23T03:58:26;23.59;27.79
74537;SHT31;63013;51.104;-115.370;2023-03-23T04:00:59;23.57;27.79
74537;SHT31;63013;51.104;-115.370;2023-03-23T04:03:27;23.55;27.81
74537;SHT31;63013;51.104;-115.370;2023-03-23T04:05:54;23.53;27.83
74537;SHT31;63013;51.104;-115.370;2023-03-23T04:08:22;23.51;27.84
74537;SHT31;63013;51.104;-115.370;2023-03-23T04:10:49;23.50;27.87
74537;SHT31;63013;51.104;-115.370;2023-03-23T04:13:17;23.48;27.84
74537;SHT31;63013;51.104;-115.370;2023-03-23T04:15:44;23.46;27.90
74537;SHT31;63013;51.104;-115.370;2023-03-23T04:18:12;23.44;27.88
74537;SHT31;63013;51.104;-115.370;2023-03-23T04:20:42;23.42;27.86
74537;SHT31;63013;51.104;-115.370;2023-03-23T04:23:13;23.40;27.88
74537;SHT31;63013;51.104;-115.370;2023-03-23T04:25:48;23.38;27.88
74537;SHT31;63013;51.104;-115.370;2023-03-23T04:28:18;23.35;27.90
74537;SHT31;63013;51.104;-115.370;2023-03-23T04:30:49;23.33;27.93
74537;SHT31;63013;51.104;-115.370;2023-03-23T04:33:21;23.30;27.93
74537;SHT31;63013;51.104;-115.370;2023-03-23T04:35:52;23.29;27.95
74537;SHT31;63013;51.104;-115.370;2023-03-23T04:38:22;23.25;27.99
74537;SHT31;63013;51.104;-115.370;2023-03-23T04:40:50;23.25;28.01
74537;SHT31;63013;51.104;-115.370;2023-03-23T04:43:20;23.22;28.01
74537;SHT31;63013;51.104;-115.370;2023-03-23T04:45:54;23.21;28.02
74537;SHT31;63013;51.104;-115.370;2023-03-23T04:48:27;23.18;28.03
74537;SHT31;63013;51.104;-115.370;2023-03-23T04:51:00;23.17;28.00
74537;SHT31;63013;51.104;-115.370;2023-03-23T04:53:30;23.15;28.07
74537;SHT31;63013;51.104;-115.370;2023-03-23T04:55:57;23.12;28.09
74537;SHT31;63013;51.104;-115.370;2023-03-23T04:58:26;23.10;28.07
74537;SHT31;63013;51.104;-115.370;2023-03-23T05:00:55;23.08;28.08
74537;SHT31;63013;51.104;-115.370;2023-03-23T05:03:22;23.06;28.10
74537;SHT31;63013;51.104;-115.370;2023-03-23T05:05:50;23.04;28.08
74537;SHT31;63013;51.104;-115.370;2023-03-23T05:08:18;23.01;28.12
74537;SHT31;63013;51.104;-115.370;2023-03-23T05:10:53;22.99;28.11
74537;SHT31;63013;51.104;-115.370;2023-03-23T05:13:25;22.97;28.19
74537;SHT31;63013;51.104;-115.370;2023-03-23T05:15:54;22.95;28.22
74537;SHT31;63013;51.104;-115.370;2023-03-23T05:18:21;22.93;28.21
74537;SHT31;63013;51.104;-115.370;2023-03-23T05:20:49;22.91;28.22
74537;SHT31;63013;51.104;-115.370;2023-03-23T05:23:18;22.90;28.28
74537;SHT31;63013;51.104;-115.370;2023-03-23T05:25:52;22.88;28.30
74537;SHT31;63013;51.104;-115.370;2023-03-23T05:28:27;22.87;28.27
74537;SHT31;63013;51.104;-115.370;2023-03-23T05:30:56;22.84;28.21
74537;SHT31;63013;51.104;-115.370;2023-03-23T05:33:23;22.82;28.28
74537;SHT31;63013;51.104;-115.370;2023-03-23T05:35:51;22.79;28.22
74537;SHT31;63013;51.104;-115.370;2023-03-23T05:38:18;22.76;28.25
74537;SHT31;63013;51.104;-115.370;2023-03-23T05:40:45;22.74;28.31
74537;SHT31;63013;51.104;-115.370;2023-03-23T05:43:12;22.72;28.35
74537;SHT31;63013;51.104;-115.370;2023-03-23T05:45:39;22.70;28.35
74537;SHT31;63013;51.104;-115.370;2023-03-23T05:48:07;22.68;28.34
74537;SHT31;63013;51.104;-115.370;2023-03-23T05:50:34;22.65;28.40
74537;SHT31;63013;51.104;-115.370;2023-03-23T05:53:01;22.63;28.40
74537;SHT31;63013;51.104;-115.370;2023-03-23T05:55:31;22.60;28.45
74537;SHT31;63013;51.104;-115.370;2023-03-23T05:57:59;22.58;28.42
74537;SHT31;63013;51.104;-115.370;2023-03-23T06:00:26;22.55;28.41
74537;SHT31;63013;51.104;-115.370;2023-03-23T06:02:56;22.53;28.47
74537;SHT31;63013;51.104;-115.370;2023-03-23T06:05:23;22.50;28.48
74537;SHT31;63013;51.104;-115.370;2023-03-23T06:07:51;22.48;28.46
74537;SHT31;63013;51.104;-115.370;2023-03-23T06:10:19;22.47;28.44
74537;SHT31;63013;51.104;-115.370;2023-03-23T06:12:49;22.45;28.48
74537;SHT31;63013;51.104;-115.370;2023-03-23T06:15:17;22.41;28.51
74537;SHT31;63013;51.104;-115.370;2023-03-23T06:17:45;22.39;28.49
74537;SHT31;63013;51.104;-115.370;2023-03-23T06:20:13;22.37;28.52
74537;SHT31;63013;51.104;-115.370;2023-03-23T06:22:40;22.35;28.57
74537;SHT31;63013;51.104;-115.370;2023-03-23T06:25:07;22.34;28.57
74537;SHT31;63013;51.104;-115.370;2023-03-23T06:27:41;22.32;28.49
74537;SHT31;63013;51.104;-115.370;2023-03-23T06:30:09;22.30;28.54
74537;SHT31;63013;51.104;-115.370;2023-03-23T06:32:40;22.28;28.48
74537;SHT31;63013;51.104;-115.370;2023-03-23T06:35:11;22.26;28.55
74537;SHT31;63013;51.104;-115.370;2023-03-23T06:37:40;22.23;28.55
74537;SHT31;63013;51.104;-115.370;2023-03-23T06:40:08;22.22;28.57
74537;SHT31;63013;51.104;-115.370;2023-03-23T06:42:36;22.18;28.55
74537;SHT31;63013;51.104;-115.370;2023-03-23T06:45:03;22.16;28.57
74537;SHT31;63013;51.104;-115.370;2023-03-23T06:47:32;22.14;28.63
74537;SHT31;63013;51.104;-115.370;2023-03-23T06:50:02;22.12;28.54
74537;SHT31;63013;51.104;-115.370;2023-03-23T06:52:30;22.11;28.57
74537;SHT31;63013;51.104;-115.370;2023-03-23T06:54:57;22.09;28.58
74537;SHT31;63013;51.104;-115.370;2023-03-23T06:57:24;22.06;28.55
74537;SHT31;63013;51.104;-115.370;2023-03-23T06:59:51;22.04;28.53
74537;SHT31;63013;51.104;-115.370;2023-03-23T07:02:18;22.02;28.59
74537;SHT31;63013;51.104;-115.370;2023-03-23T07:04:46;22.00;28.59
74537;SHT31;63013;51.104;-115.370;2023-03-23T07:07:13;21.98;28.57
74537;SHT31;63013;51.104;-115.370;2023-03-23T07:09:44;21.95;28.58
74537;SHT31;63013;51.104;-115.370;2023-03-23T07:19:34;21.84;28.70
74537;SHT31;63013;51.104;-115.370;2023-03-23T07:22:03;21.82;28.67
74537;SHT31;63013;51.104;-115.370;2023-03-23T07:24:32;21.80;28.74
74537;SHT31;63013;51.104;-115.370;2023-03-23T07:26:59;21.77;28.73
74537;SHT31;63013;51.104;-115.370;2023-03-23T07:29:28;21.75;28.77
74537;SHT31;63013;51.104;-115.370;2023-03-23T07:31:56;21.74;28.76
74537;SHT31;63013;51.104;-115.370;2023-03-23T07:34:23;21.73;28.79
74537;SHT31;63013;51.104;-115.370;2023-03-23T07:36:50;21.71;28.74
74537;SHT31;63013;51.104;-115.370;2023-03-23T07:39:17;21.69;28.67
74537;SHT31;63013;51.104;-115.370;2023-03-23T07:41:44;21.68;28.70
74537;SHT31;63013;51.104;-115.370;2023-03-23T07:44:12;21.66;28.67
74537;SHT31;63013;51.104;-115.370;2023-03-23T07:46:39;21.66;28.66
74537;SHT31;63013;51.104;-115.370;2023-03-23T07:49:07;21.64;28.68
74537;SHT31;63013;51.104;-115.370;2023-03-23T07:51:35;21.63;28.60
74537;SHT31;63013;51.104;-115.370;2023-03-23T07:54:04;21.61;28.56
74537;SHT31;63013;51.104;-115.370;2023-03-23T07:56:35;21.58;28.71
74537;SHT31;63013;51.104;-115.370;2023-03-23T07:59:05;21.56;28.63
74537;SHT31;63013;51.104;-115.370;2023-03-23T08:01:33;21.54;28.67
74537;SHT31;63013;51.104;-115.370;2023-03-23T08:04:01;21.52;28.67
74537;SHT31;63013;51.104;-115.370;2023-03-23T08:06:28;21.50;28.78
74537;SHT31;63013;51.104;-115.370;2023-03-23T08:08:58;21.48;28.71
74537;SHT31;63013;51.104;-115.370;2023-03-23T08:11:27;21.47;28.76
74537;SHT31;63013;51.104;-115.370;2023-03-23T08:13:54;21.44;28.78
74537;SHT31;63013;51.104;-115.370;2023-03-23T08:16:21;21.42;28.75
74537;SHT31;63013;51.104;-115.370;2023-03-23T08:18:49;21.40;28.82
74537;SHT31;63013;51.104;-115.370;2023-03-23T08:21:17;21.39;28.69
74537;SHT31;63013;51.104;-115.370;2023-03-23T08:23:45;21.36;28.77
74537;SHT31;63013;51.104;-115.370;2023-03-23T08:26:12;21.34;28.72
74537;SHT31;63013;51.104;-115.370;2023-03-23T08:28:40;21.33;28.83
74537;SHT31;63013;51.104;-115.370;2023-03-23T08:31:10;21.31;28.83
74537;SHT31;63013;51.104;-115.370;2023-03-23T08:33:40;21.29;28.83
74537;SHT31;63013;51.104;-115.370;2023-03-23T08:36:07;21.28;28.79
74537;SHT31;63013;51.104;-115.370;2023-03-23T08:38:35;21.25;28.94
74537;SHT31;63013;51.104;-115.370;2023-03-23T08:41:03;21.23;28.81
74537;SHT31;63013;51.104;-115.370;2023-03-23T08:43:33;21.21;28.79
74537;SHT31;63013;51.104;-115.370;2023-03-23T08:46:01;21.18;28.79
74537;SHT31;63013;51.104;-115.370;2023-03-23T08:48:32;21.17;28.80
74537;SHT31;63013;51.104;-115.370;2023-03-23T08:51:01;21.14;28.83
74537;SHT31;63013;51.104;-115.370;2023-03-23T08:53:30;21.12;28.76
74537;SHT31;63013;51.104;-115.370;2023-03-23T08:56:08;21.10;28.84
74537;SHT31;63013;51.104;-115.370;2023-03-23T08:58:40;21.08;28.98
74537;SHT31;63013;51.104;-115.370;2023-03-23T09:01:07;21.05;28.88
74537;SHT31;63013;51.104;-115.370;2023-03-23T09:03:36;21.03;28.91
74537;SHT31;63013;51.104;-115.370;2023-03-23T09:06:05;21.01;28.91
74537;SHT31;63013;51.104;-115.370;2023-03-23T09:08:34;20.99;28.87
74537;SHT31;63013;51.104;-115.370;2023-03-23T09:11:03;20.96;28.85
74537;SHT31;63013;51.104;-115.370;2023-03-23T09:13:35;20.94;28.83
74537;SHT31;63013;51.104;-115.370;2023-03-23T09:16:05;20.92;28.92
74537;SHT31;63013;51.104;-115.370;2023-03-23T09:18:33;20.89;28.98
74537;SHT31;63013;51.104;-115.370;2023-03-23T09:21:01;20.87;28.99
74537;SHT31;63013;51.104;-115.370;2023-03-23T09:23:30;20.86;28.94
74537;SHT31;63013;51.104;-115.370;2023-03-23T09:25:59;20.83;28.87
74537;SHT31;63013;51.104;-115.370;2023-03-23T09:28:28;20.82;28.95
74537;SHT31;63013;51.104;-115.370;2023-03-23T09:30:56;20.80;29.04
74537;SHT31;63013;51.104;-115.370;2023-03-23T09:33:24;20.78;28.91
74537;SHT31;63013;51.104;-115.370;2023-03-23T09:35:54;20.75;28.92
74537;SHT31;63013;51.104;-115.370;2023-03-23T09:38:21;20.74;28.96
74537;SHT31;63013;51.104;-115.370;2023-03-23T09:46:55;20.67;29.02
74537;SHT31;63013;51.104;-115.370;2023-03-23T09:52:20;20.61;28.91
74537;SHT31;63013;51.104;-115.370;2023-03-23T09:54:53;20.61;28.99
74537;SHT31;63013;51.104;-115.370;2023-03-23T10:00:29;20.55;29.02
74537;SHT31;63013;51.104;-115.370;2023-03-23T10:03:15;20.52;29.00
74537;SHT31;63013;51.104;-115.370;2023-03-23T10:05:47;20.51;29.07
74537;SHT31;63013;51.104;-115.370;2023-03-23T10:08:19;20.50;29.16
74537;SHT31;63013;51.104;-115.370;2023-03-23T10:16:29;20.42;28.91
74537;SHT31;63013;51.104;-115.370;2023-03-23T10:22:02;20.38;29.03
74537;SHT31;63013;51.104;-115.370;2023-03-23T10:24:42;20.35;29.12
74537;SHT31;63013;51.104;-115.370;2023-03-23T10:33:29;20.29;29.11
74537;SHT31;63013;51.104;-115.370;2023-03-23T10:35:51;20.27;29.10
74537;SHT31;63013;51.104;-115.370;2023-03-23T10:38:27;20.25;29.10
74537;SHT31;63013;51.104;-115.370;2023-03-23T10:41:04;20.22;29.14
74537;SHT31;63013;51.104;-115.370;2023-03-23T10:43:40;20.20;29.23
74537;SHT31;63013;51.104;-115.370;2023-03-23T10:46:25;20.18;29.13
74537;SHT31;63013;51.104;-115.370;2023-03-23T10:49:23;20.16;29.18
74537;SHT31;63013;51.104;-115.370;2023-03-23T10:55:00;20.11;29.07
74537;SHT31;63013;51.104;-115.370;2023-03-23T10:57:37;20.10;29.11
74537;SHT31;63013;51.104;-115.370;2023-03-23T11:05:40;20.03;29.18
74537;SHT31;63013;51.104;-115.370;2023-03-23T11:08:19;20.00;29.17
74537;SHT31;63013;51.104;-115.370;2023-03-23T11:10:50;19.98;29.17
74537;SHT31;63013;51.104;-115.370;2023-03-23T11:13:30;19.95;29.19
74537;SHT31;63013;51.104;-115.370;2023-03-23T11:16:04;19.93;29.24
74537;SHT31;63013;51.104;-115.370;2023-03-23T11:18:40;19.90;29.24
74537;SHT31;63013;51.104;-115.370;2023-03-23T11:21:10;19.89;29.21
74537;SHT31;63013;51.104;-115.370;2023-03-23T11:23:40;19.87;29.11
74537;SHT31;63013;51.104;-115.370;2023-03-23T11:26:20;19.85;29.09
74537;SHT31;63013;51.104;-115.370;2023-03-23T11:29:09;19.83;29.14
74537;SHT31;63013;51.104;-115.370;2023-03-23T11:31:40;19.82;29.07
74537;SHT31;63013;51.104;-115.370;2023-03-23T11:34:21;19.80;29.18
74537;SHT31;63013;51.104;-115.370;2023-03-23T11:37:09;19.79;29.25
74537;SHT31;63013;51.104;-115.370;2023-03-23T11:39:59;19.77;29.27
74537;SHT31;63013;51.104;-115.370;2023-03-23T11:51:20;19.69;29.15
74537;SHT31;63013;51.104;-115.370;2023-03-23T11:54:01;19.67;29.11
74537;SHT31;63013;51.104;-115.370;2023-03-23T11:56:55;19.65;29.28
74537;SHT31;63013;51.104;-115.370;2023-03-23T12:02:16;19.62;29.11
74537;SHT31;63013;51.104;-115.370;2023-03-23T12:05:16;19.60;29.13
74537;SHT31;63013;51.104;-115.370;2023-03-23T12:13:26;19.54;29.20
74537;SHT31;63013;51.104;-115.370;2023-03-23T12:16:17;19.53;29.18
74537;SHT31;63013;51.104;-115.370;2023-03-23T12:21:50;19.48;29.34
74537;SHT31;63013;51.104;-115.370;2023-03-23T12:27:29;19.43;29.30
74537;SHT31;63013;51.104;-115.370;2023-03-23T12:30:16;19.40;29.29
74537;SHT31;63013;51.104;-115.370;2023-03-23T12:33:07;19.38;29.33
74537;SHT31;63013;51.104;-115.370;2023-03-23T12:39:57;19.32;29.30
74537;SHT31;63013;51.104;-115.370;2023-03-23T12:42:57;19.30;29.34
74537;SHT31;63013;51.104;-115.370;2023-03-23T12:45:48;19.27;29.31
74537;SHT31;63013;51.104;-115.370;2023-03-23T12:49:13;19.25;29.28
74537;SHT31;63013;51.104;-115.370;2023-03-23T13:01:10;19.16;29.28
74537;SHT31;63013;51.104;-115.370;2023-03-23T13:06:47;19.13;29.28
74537;SHT31;63013;51.104;-115.370;2023-03-23T13:09:24;19.11;29.35
74537;SHT31;63013;51.104;-115.370;2023-03-23T13:12:15;19.09;29.34
74537;SHT31;63013;51.104;-115.370;2023-03-23T13:23:49;19.03;29.55
74537;SHT31;63013;51.104;-115.370;2023-03-23T13:26:29;19.01;29.85
74537;SHT31;63013;51.104;-115.370;2023-03-23T13:29:08;19.00;29.88
74537;SHT31;63013;51.104;-115.370;2023-03-23T13:31:41;18.98;29.96
74537;SHT31;63013;51.104;-115.370;2023-03-23T13:36:54;18.95;30.03
74537;SHT31;63013;51.104;-115.370;2023-03-23T13:39:38;18.93;30.11
74537;SHT31;63013;51.104;-115.370;2023-03-23T13:42:50;18.91;29.99
74537;SHT31;63013;51.104;-115.370;2023-03-23T13:48:03;18.86;30.22
74537;SHT31;63013;51.104;-115.370;2023-03-23T13:50:53;18.86;30.30
74537;SHT31;63013;51.104;-115.370;2023-03-23T13:53:27;18.84;30.27
74537;SHT31;63013;51.104;-115.370;2023-03-23T13:56:31;18.83;30.26
74537;SHT31;63013;51.104;-115.370;2023-03-23T13:59:13;18.82;30.18
74537;SHT31;63013;51.104;-115.370;2023-03-23T14:01:54;18.80;30.11
74537;SHT31;63013;51.104;-115.370;2023-03-23T14:04:42;18.81;30.02
74537;SHT31;63013;51.104;-115.370;2023-03-23T14:07:15;18.82;30.00
74537;SHT31;63013;51.104;-115.370;2023-03-23T14:09:44;18.84;29.94
74537;SHT31;63013;51.104;-115.370;2023-03-23T14:12:14;18.86;29.95
74537;SHT31;63013;51.104;-115.370;2023-03-23T14:15:02;18.87;29.91
74537;SHT31;63013;51.104;-115.370;2023-03-23T14:17:34;18.90;29.93
74537;SHT31;63013;51.104;-115.370;2023-03-23T14:20:19;18.93;29.90
74537;SHT31;63013;51.104;-115.370;2023-03-23T14:22:58;18.97;29.93
74537;SHT31;63013;51.104;-115.370;2023-03-23T14:25:27;19.00;29.97
74537;SHT31;63013;51.104;-115.370;2023-03-23T14:28:00;19.02;29.98
74537;SHT31;63013;51.104;-115.370;2023-03-23T14:30:42;19.07;30.00
74537;SHT31;63013;51.104;-115.370;2023-03-23T14:33:10;19.10;29.99
74537;SHT31;63013;51.104;-115.370;2023-03-23T14:35:40;19.13;29.98
74537;SHT31;63013;51.104;-115.370;2023-03-23T14:38:14;19.18;30.00
74537;SHT31;63013;51.104;-115.370;2023-03-23T14:40:50;19.22;29.95
74537;SHT31;63013;51.104;-115.370;2023-03-23T14:43:19;19.25;29.97
74537;SHT31;63013;51.104;-115.370;2023-03-23T14:45:54;19.29;29.96
74537;SHT31;63013;51.104;-115.370;2023-03-23T14:48:26;19.34;29.98
74537;SHT31;63013;51.104;-115.370;2023-03-23T14:50:58;19.38;29.94
74537;SHT31;63013;51.104;-115.370;2023-03-23T14:53:31;19.43;29.93
74537;SHT31;63013;51.104;-115.370;2023-03-23T14:56:12;19.48;29.90
74537;SHT31;63013;51.104;-115.370;2023-03-23T14:58:44;19.53;29.89
74537;SHT31;63013;51.104;-115.370;2023-03-23T15:01:20;19.59;29.90
74537;SHT31;63013;51.104;-115.370;2023-03-23T15:04:08;19.64;29.89
74537;SHT31;63013;51.104;-115.370;2023-03-23T15:06:56;19.71;29.89
74537;SHT31;63013;51.104;-115.370;2023-03-23T15:09:29;19.76;29.88
74537;SHT31;63013;51.104;-115.370;2023-03-23T15:11:59;19.82;29.89
74537;SHT31;63013;51.104;-115.370;2023-03-23T15:14:32;19.86;29.88
74537;SHT31;63013;51.104;-115.370;2023-03-23T15:17:26;19.90;29.84
74537;SHT31;63013;51.104;-115.370;2023-03-23T15:19:56;19.94;29.80
74537;SHT31;63013;51.104;-115.370;2023-03-23T15:22:32;19.94;29.80
74537;SHT31;63013;51.104;-115.370;2023-03-23T15:25:08;19.95;29.80
74537;SHT31;63013;51.104;-115.370;2023-03-23T15:27:53;19.96;29.81
74537;SHT31;63013;51.104;-115.370;2023-03-23T15:32:54;19.95;29.89
74537;SHT31;63013;51.104;-115.370;2023-03-23T15:35:32;19.96;29.90
74537;SHT31;63013;51.104;-115.370;2023-03-23T15:38:04;19.98;29.91
74537;SHT31;63013;51.104;-115.370;2023-03-23T15:40:40;19.99;29.93
74537;SHT31;63013;51.104;-115.370;2023-03-23T15:43:21;20.01;29.95
74537;SHT31;63013;51.104;-115.370;2023-03-23T15:51:33;20.08;30.00
74537;SHT31;63013;51.104;-115.370;2023-03-23T15:54:00;20.08;30.00
74537;SHT31;63013;51.104;-115.370;2023-03-23T15:56:28;20.08;30.00
74537;SHT31;63013;51.104;-115.370;2023-03-23T15:58:57;20.07;30.00
74537;SHT31;63013;51.104;-115.370;2023-03-23T16:01:26;20.07;30.00
74537;SHT31;63013;51.104;-115.370;2023-03-23T16:06:54;20.05;30.10
74537;SHT31;63013;51.104;-115.370;2023-03-23T16:09:23;20.04;30.14
74537;SHT31;63013;51.104;-115.370;2023-03-23T16:11:51;20.06;30.17
74537;SHT31;63013;51.104;-115.370;2023-03-23T16:14:18;20.08;30.17
74537;SHT31;63013;51.104;-115.370;2023-03-23T16:16:46;20.09;30.17
74537;SHT31;63013;51.104;-115.370;2023-03-23T16:19:17;20.09;30.15
74537;SHT31;63013;51.104;-115.370;2023-03-23T16:21:48;20.09;30.18
74537;SHT31;63013;51.104;-115.370;2023-03-23T16:24:16;20.09;30.19
74537;SHT31;63013;51.104;-115.370;2023-03-23T16:26:44;20.08;30.20
74537;SHT31;63013;51.104;-115.370;2023-03-23T16:29:15;20.08;30.20
74537;SHT31;63013;51.104;-115.370;2023-03-23T16:31:43;20.07;30.22
74537;SHT31;63013;51.104;-115.370;2023-03-23T16:34:13;20.05;30.21
74537;SHT31;63013;51.104;-115.370;2023-03-23T16:36:43;20.04;30.21
74537;SHT31;63013;51.104;-115.370;2023-03-23T16:39:11;20.03;30.23
74537;SHT31;63013;51.104;-115.370;2023-03-23T16:41:40;20.02;30.26
74537;SHT31;63013;51.104;-115.370;2023-03-23T16:44:17;20.02;30.31
74537;SHT31;63013;51.104;-115.370;2023-03-23T16:46:47;20.00;30.30
74537;SHT31;63013;51.104;-115.370;2023-03-23T16:49:15;20.00;30.32
74537;SHT31;63013;51.104;-115.370;2023-03-23T16:51:42;19.99;30.29
74537;SHT31;63013;51.104;-115.370;2023-03-23T16:54:13;19.97;30.28
74537;SHT31;63013;51.104;-115.370;2023-03-23T16:57:02;19.96;30.26
74537;SHT31;63013;51.104;-115.370;2023-03-23T16:59:34;19.96;30.23
74537;SHT31;63013;51.104;-115.370;2023-03-23T17:02:11;19.95;30.27
74537;SHT31;63013;51.104;-115.370;2023-03-23T17:04:41;19.94;30.35
74537;SHT31;63013;51.104;-115.370;2023-03-23T17:07:11;19.93;30.44
74537;SHT31;63013;51.104;-115.370;2023-03-23T17:09:38;19.91;30.54
74537;SHT31;63013;51.104;-115.370;2023-03-23T17:12:06;19.91;30.59
74537;SHT31;63013;51.104;-115.370;2023-03-23T17:14:33;19.89;30.71
74537;SHT31;63013;51.104;-115.370;2023-03-23T17:17:01;19.89;30.79
74537;SHT31;63013;51.104;-115.370;2023-03-23T17:19:28;19.89;30.94
74537;SHT31;63013;51.104;-115.370;2023-03-23T17:21:55;19.91;31.12
74537;SHT31;63013;51.104;-115.370;2023-03-23T17:24:22;19.91;31.12
74537;SHT31;63013;51.104;-115.370;2023-03-23T17:26:51;19.93;31.17
74537;SHT31;63013;51.104;-115.370;2023-03-23T17:29:19;19.94;31.20
74537;SHT31;63013;51.104;-115.370;2023-03-23T17:31:47;19.96;31.23
74537;SHT31;63013;51.104;-115.370;2023-03-23T17:34:16;19.97;31.25